Everest, Kansas
Current Conditions -  °F | °C
As of 12:29 AM on Monday 26 Jan 2015 (Local Time) from KSTJ Reporting Station
Haze Haze  
Wind Chill: 24°   Ceiling: 3300
Heat Index: 24°   Visibility: 4mi
Dew Point: 23°   Wind: 3mph
Humidity: 96%   Direction: 210°SSW
Pressure: 30.1"   Gusts: NA
Location:  39.68°N, 95.42°W
Report Text: KSTJ 260629Z AUTO 21003KT 4SM BR BKN033 M04/M05 A3010 RMK AO2 I1000 T10441050 $
Loading
Personal Weather Stations






























Interactive Weather Map New forecast layout! Learn more

10-Day Weather Forecast

Advertisements
Track Severe Weather on mobile